Time;durP1;ratioP1;P1;durP2;ratioP2;P2;SDS_P1;SDS_P2;PMS_P1;PMS_P2;Temp;Humidity;BMP_temperature;BMP_pressure;BME280_temperature;BME280_humidity;BME280_pressure;Samples;Min_cycle;Max_cycle;Signal;HPM_P1;HPM_P2
2022/06/09 00:01:26;;;;;;;15.50;14.20;;;;;;;17.29;86.45;97130.86;108594;1285;22394;-87
2022/06/09 00:04:02;;;;;;;16.40;15.00;;;;;;;17.28;86.43;97130.55;108592;1284;23006;-85
2022/06/09 00:06:40;;;;;;;15.80;14.40;;;;;;;17.29;86.50;97130.02;108437;1286;23574;-88
2022/06/09 00:09:08;;;;;;;15.00;13.50;;;;;;;17.32;86.43;97135.04;108394;1286;23125;-86
2022/06/09 00:11:39;;;;;;;14.80;13.30;;;;;;;17.32;86.52;97135.11;108610;1285;22352;-88
2022/06/09 00:14:09;;;;;;;14.50;13.30;;;;;;;17.32;86.54;97134.41;108638;1286;22403;-88
2022/06/09 00:16:37;;;;;;;12.40;11.30;;;;;;;17.33;86.82;97126.12;108606;1285;22346;-86
2022/06/09 00:19:05;;;;;;;11.60;10.60;;;;;;;17.36;87.17;97126.64;108467;1287;23075;-84
2022/06/09 00:21:35;;;;;;;13.50;12.30;;;;;;;17.43;87.23;97123.73;108616;1285;23096;-87
2022/06/09 00:24:04;;;;;;;11.00;10.00;;;;;;;17.47;86.82;97122.24;108311;1285;22404;-86
2022/06/09 00:26:32;;;;;;;11.00;9.80;;;;;;;17.51;87.25;97124.48;108499;1286;22390;-86
2022/06/09 00:29:01;;;;;;;11.80;10.60;;;;;;;17.61;87.48;97130.88;108376;1287;22347;-86
2022/06/09 00:31:29;;;;;;;12.90;11.60;;;;;;;17.67;87.04;97134.88;108402;1286;23176;-86
2022/06/09 00:33:57;;;;;;;13.60;12.20;;;;;;;17.60;86.78;97132.58;108624;1286;22292;-86
2022/06/09 00:36:25;;;;;;;13.40;12.20;;;;;;;17.52;86.82;97135.87;108622;1285;22816;-86
2022/06/09 00:38:52;;;;;;;15.20;13.70;;;;;;;17.44;87.04;97137.67;108621;1285;22267;-86
2022/06/09 00:41:20;;;;;;;14.80;13.40;;;;;;;17.32;86.89;97135.59;108622;1285;22306;-85
2022/06/09 00:43:48;;;;;;;13.90;12.70;;;;;;;17.17;87.10;97142.02;108634;1285;22377;-88
2022/06/09 00:46:21;;;;;;;14.80;13.50;;;;;;;17.08;87.58;97154.89;108628;1286;22366;-87
2022/06/09 00:48:50;;;;;;;15.30;13.90;;;;;;;16.97;87.97;97167.66;108599;1285;22370;-87
2022/06/09 00:51:22;;;;;;;19.20;11.90;;;;;;;16.94;88.04;97175.44;108609;1285;22994;-87
2022/06/09 00:53:57;;;;;;;22.00;14.30;;;;;;;17.02;88.51;97186.82;108612;1285;22286;-85
2022/06/09 00:56:25;;;;;;;14.80;13.20;;;;;;;17.10;88.36;97191.64;108605;1285;22404;-87
2022/06/09 00:58:55;;;;;;;12.30;11.10;;;;;;;17.17;88.89;97177.94;108607;1285;22438;-87
2022/06/09 01:01:24;;;;;;;13.10;11.80;;;;;;;17.22;88.66;97157.50;108616;1285;22282;-87
2022/06/09 01:04:05;;;;;;;12.20;10.00;;;;;;;17.32;88.68;97146.02;108452;1286;23133;-86
2022/06/09 01:06:39;;;;;;;11.90;10.70;;;;;;;17.35;88.46;97135.80;108599;1285;22371;-87
2022/06/09 01:09:15;;;;;;;11.00;10.00;;;;;;;17.33;88.29;97124.55;108637;1285;22345;-85
2022/06/09 01:11:46;;;;;;;11.10;9.60;;;;;;;17.34;88.74;97109.17;108661;1285;22361;-88
2022/06/09 01:14:17;;;;;;;13.30;9.30;;;;;;;17.23;90.04;97089.39;108617;1285;23085;-84
2022/06/09 01:17:04;;;;;;;9.50;8.50;;;;;;;17.02;89.32;97099.56;108440;1286;22518;-84
2022/06/09 01:20:19;;;;;;;10.10;8.50;;;;;;;16.92;88.96;97120.84;108619;1285;22333;-85
2022/06/09 01:22:57;;;;;;;9.80;7.50;;;;;;;16.86;89.09;97122.05;107684;1292;23039;-88
2022/06/09 01:25:30;;;;;;;7.60;6.90;;;;;;;16.83;89.41;97107.98;107541;1293;22414;-86
2022/06/09 01:28:35;;;;;;;6.70;5.70;;;;;;;16.79;90.03;97097.80;107662;1293;22440;-88
2022/06/09 01:31:11;;;;;;;6.40;5.20;;;;;;;16.71;89.80;97100.95;107653;1293;22414;-85
2022/06/09 01:33:44;;;;;;;4.10;3.70;;;;;;;16.70;89.68;97098.77;107679;1293;22450;-88
2022/06/09 01:36:19;;;;;;;6.20;3.50;;;;;;;16.70;89.85;97094.80;107592;1293;22436;-85
2022/06/09 01:38:52;;;;;;;4.70;3.50;;;;;;;16.68;89.87;97086.29;107710;1292;22431;-88
2022/06/09 01:41:23;;;;;;;4.20;3.50;;;;;;;16.67;89.77;97093.34;107516;1292;22401;-86
2022/06/09 01:43:54;;;;;;;4.60;3.50;;;;;;;16.67;90.15;97099.88;107553;1293;22379;-87
2022/06/09 01:46:34;;;;;;;5.50;3.70;;;;;;;16.68;90.17;97095.70;107690;1293;22421;-88
2022/06/09 01:49:11;;;;;;;4.80;4.00;;;;;;;16.71;90.12;97089.17;107656;1293;22426;-88
2022/06/09 01:51:42;;;;;;;5.40;3.90;;;;;;;16.71;90.03;97082.56;107652;1293;23174;-88
2022/06/09 01:54:20;;;;;;;5.90;4.00;;;;;;;16.71;90.13;97076.88;108094;1286;22269;-88
2022/06/09 01:56:57;;;;;;;6.80;4.00;;;;;;;16.69;90.42;97068.20;108311;1287;22375;-88
2022/06/09 01:59:32;;;;;;;5.50;4.00;;;;;;;16.66;90.35;97067.05;108595;1285;23091;-86
2022/06/09 02:02:04;;;;;;;5.50;3.90;;;;;;;16.62;90.33;97064.50;108386;1286;22317;-87
2022/06/09 02:04:38;;;;;;;6.50;4.40;;;;;;;16.57;90.40;97063.23;108416;1286;23160;-82
2022/06/09 02:07:08;;;;;;;8.20;4.50;;;;;;;16.52;90.43;97074.77;108597;1286;22353;-87
2022/06/09 02:09:40;;;;;;;7.00;4.30;;;;;;;16.48;90.42;97076.02;108604;1285;23319;-86
2022/06/09 02:12:11;;;;;;;4.40;4.00;;;;;;;16.46;90.44;97076.67;108297;1287;22364;-86
2022/06/09 02:14:51;;;;;;;5.50;4.10;;;;;;;16.45;90.54;97064.62;108592;1285;22394;-88
2022/06/09 02:17:20;;;;;;;4.90;3.80;;;;;;;16.44;90.87;97050.84;108612;1285;22404;-87
2022/06/09 02:19:49;;;;;;;5.30;4.10;;;;;;;16.37;91.62;97046.66;108614;1285;22394;-88
2022/06/09 02:22:17;;;;;;;9.90;3.90;;;;;;;16.28;91.27;97047.48;108401;1285;22362;-87
2022/06/09 02:24:46;;;;;;;6.20;3.60;;;;;;;16.23;91.17;97042.81;108636;1286;22473;-88
2022/06/09 02:27:14;;;;;;;4.20;3.80;;;;;;;16.21;91.12;97050.62;108615;1285;22283;-87
2022/06/09 02:29:42;;;;;;;4.40;3.60;;;;;;;16.23;91.23;97053.36;108601;1286;22360;-87
2022/06/09 02:32:10;;;;;;;4.20;3.80;;;;;;;16.24;91.00;97061.30;108614;1285;22945;-87
2022/06/09 02:34:38;;;;;;;4.40;3.90;;;;;;;16.23;91.08;97063.16;108599;1286;22523;-87
2022/06/09 02:37:05;;;;;;;5.70;3.90;;;;;;;16.21;91.21;97066.30;108610;1285;22536;-87
2022/06/09 02:39:33;;;;;;;6.00;3.90;;;;;;;16.18;91.14;97069.95;108489;1286;22370;-88
2022/06/09 02:42:01;;;;;;;6.30;4.00;;;;;;;16.13;91.20;97072.96;108629;1286;22352;-87
2022/06/09 02:44:30;;;;;;;5.40;4.30;;;;;;;16.12;91.16;97074.55;108589;1285;22457;-84
2022/06/09 02:46:57;;;;;;;4.90;4.10;;;;;;;16.13;91.26;97072.80;108600;1285;22367;-85
2022/06/09 02:49:26;;;;;;;5.50;3.90;;;;;;;16.15;91.23;97070.98;108506;1286;22322;-85
2022/06/09 02:51:54;;;;;;;6.40;4.40;;;;;;;16.17;91.10;97064.41;108407;1286;22481;-85
2022/06/09 02:54:22;;;;;;;6.10;5.00;;;;;;;16.16;90.98;97060.27;108590;1285;22290;-85
2022/06/09 02:56:50;;;;;;;7.00;5.10;;;;;;;16.16;91.15;97059.58;108607;1285;22312;-86
2022/06/09 02:59:18;;;;;;;7.90;5.30;;;;;;;16.18;91.17;97057.61;108583;1285;22175;-85
2022/06/09 03:01:46;;;;;;;5.50;4.30;;;;;;;16.18;90.99;97060.70;108597;1285;22300;-83
2022/06/09 03:04:14;;;;;;;5.80;5.10;;;;;;;16.17;90.95;97064.17;108586;1285;22520;-83
2022/06/09 03:06:42;;;;;;;7.70;4.60;;;;;;;16.16;91.09;97063.08;108625;1286;23161;-84
2022/06/09 03:09:10;;;;;;;6.30;4.50;;;;;;;16.16;91.12;97061.21;108324;1285;22164;-84
2022/06/09 03:11:38;;;;;;;4.60;4.10;;;;;;;16.17;91.08;97064.10;108593;1286;22176;-84
2022/06/09 03:14:06;;;;;;;6.10;5.40;;;;;;;16.19;91.07;97066.95;108596;1285;22387;-84
2022/06/09 03:16:33;;;;;;;5.90;4.30;;;;;;;16.20;91.19;97065.96;108587;1285;22304;-83
2022/06/09 03:19:01;;;;;;;5.60;4.90;;;;;;;16.22;91.11;97064.91;108596;1286;22446;-83
2022/06/09 03:21:29;;;;;;;7.50;4.40;;;;;;;16.21;90.96;97066.99;108630;1286;23018;-84
2022/06/09 03:23:58;;;;;;;5.10;4.60;;;;;;;16.22;91.18;97063.13;108610;1286;22349;-83
2022/06/09 03:26:26;;;;;;;5.80;4.30;;;;;;;16.24;91.09;97056.97;108607;1285;22262;-83
2022/06/09 03:28:54;;;;;;;10.30;4.30;;;;;;;16.26;91.17;97059.09;108424;1286;22629;-83
2022/06/09 03:31:22;;;;;;;4.10;3.70;;;;;;;16.26;91.10;97060.89;108622;1286;22297;-83
2022/06/09 03:33:50;;;;;;;4.60;3.90;;;;;;;16.25;91.11;97063.81;108599;1285;22253;-83
2022/06/09 03:36:18;;;;;;;5.50;4.60;;;;;;;16.26;91.03;97063.60;108606;1286;22354;-83
2022/06/09 03:38:46;;;;;;;9.00;5.70;;;;;;;16.26;90.96;97061.88;108593;1285;22323;-83
2022/06/09 03:41:14;;;;;;;7.80;6.20;;;;;;;16.26;91.05;97067.09;108563;1286;22415;-83
2022/06/09 03:43:42;;;;;;;5.90;5.40;;;;;;;16.28;91.28;97068.16;108561;1285;22275;-83
2022/06/09 03:46:11;;;;;;;6.60;5.50;;;;;;;16.32;91.35;97062.55;108577;1286;22270;-85
2022/06/09 03:48:40;;;;;;;7.30;6.00;;;;;;;16.33;91.44;97062.36;108569;1286;22292;-84
2022/06/09 03:51:10;;;;;;;7.90;5.90;;;;;;;16.37;91.40;97057.45;108285;1287;22321;-84
2022/06/09 03:53:39;;;;;;;8.50;5.40;;;;;;;16.43;91.41;97059.83;108564;1285;22313;-84
2022/06/09 03:56:16;;;;;;;5.90;5.30;;;;;;;16.50;91.44;97062.62;108574;1285;22786;-84
2022/06/09 03:58:45;;;;;;;6.50;5.80;;;;;;;16.58;91.55;97056.11;108597;1285;22415;-83
2022/06/09 04:01:17;;;;;;;6.60;5.90;;;;;;;16.64;91.55;97056.97;108474;1287;22381;-84
2022/06/09 04:03:47;;;;;;;5.60;5.00;;;;;;;16.66;91.26;97055.94;108563;1286;22359;-84
2022/06/09 04:06:19;;;;;;;8.10;5.40;;;;;;;16.66;91.45;97054.16;108496;1287;22365;-84
2022/06/09 04:08:48;;;;;;;6.70;5.60;;;;;;;16.73;91.51;97054.75;108536;1285;22290;-83
2022/06/09 04:11:19;;;;;;;9.50;5.60;;;;;;;16.74;91.32;97049.89;108544;1285;22323;-83
2022/06/09 04:13:47;;;;;;;8.10;6.10;;;;;;;16.76;91.45;97047.08;108575;1285;22435;-82
2022/06/09 04:16:34;;;;;;;5.90;5.30;;;;;;;16.75;91.33;97044.69;108551;1285;22389;-83
2022/06/09 04:19:05;;;;;;;15.50;14.10;;;;;;;16.73;91.45;97047.15;108583;1285;22394;-85
2022/06/09 04:21:34;;;;;;;20.90;19.00;;;;;;;16.75;91.34;97046.41;108536;1286;22321;-85
2022/06/09 04:24:03;;;;;;;19.20;17.50;;;;;;;16.79;91.55;97048.14;108531;1287;22409;-85
2022/06/09 04:26:34;;;;;;;8.70;7.90;;;;;;;16.85;91.48;97048.56;108564;1286;22354;-86
2022/06/09 04:29:05;;;;;;;12.30;11.10;;;;;;;16.89;91.29;97054.38;108561;1285;22275;-85
2022/06/09 04:31:33;;;;;;;10.10;6.50;;;;;;;16.94;91.59;97054.88;108555;1286;23040;-84
2022/06/09 04:34:01;;;;;;;8.30;7.30;;;;;;;17.02;91.67;97054.54;108555;1286;22313;-85
2022/06/09 04:36:30;;;;;;;8.00;5.30;;;;;;;17.10;91.53;97054.84;108497;1287;22370;-85
2022/06/09 04:39:02;;;;;;;9.10;5.50;;;;;;;17.15;91.40;97053.85;108560;1285;22424;-85
2022/06/09 04:41:30;;;;;;;6.60;5.30;;;;;;;17.22;91.26;97058.16;108581;1285;22361;-86
2022/06/09 04:43:58;;;;;;;5.50;4.60;;;;;;;17.31;91.28;97054.50;108563;1286;23541;-85
2022/06/09 04:46:26;;;;;;;7.30;5.40;;;;;;;17.37;91.39;97056.41;108549;1287;22468;-84
2022/06/09 04:48:54;;;;;;;8.40;5.40;;;;;;;17.43;91.34;97058.07;108563;1285;22375;-86
2022/06/09 04:51:25;;;;;;;8.40;5.80;;;;;;;17.52;91.33;97060.78;108580;1286;22161;-87
2022/06/09 04:53:53;;;;;;;6.80;6.10;;;;;;;17.61;91.21;97058.59;108569;1286;22495;-85
2022/06/09 04:56:22;;;;;;;8.40;7.50;;;;;;;17.68;91.09;97055.73;108445;1286;23052;-87
2022/06/09 04:58:51;;;;;;;8.70;7.90;;;;;;;17.76;91.02;97060.23;108547;1286;22397;-85
2022/06/09 05:01:25;;;;;;;10.20;9.20;;;;;;;17.80;90.99;97059.84;108423;1286;22637;-86
2022/06/09 05:03:54;;;;;;;9.60;8.70;;;;;;;17.87;90.82;97063.69;108572;1286;22285;-86
2022/06/09 05:06:24;;;;;;;9.00;8.10;;;;;;;17.93;90.45;97063.14;108561;1286;22374;-87
2022/06/09 05:08:54;;;;;;;10.50;9.60;;;;;;;18.00;90.67;97069.55;108557;1285;22465;-86
2022/06/09 05:11:23;;;;;;;11.50;10.30;;;;;;;18.08;90.58;97072.16;108561;1285;22419;-85
2022/06/09 05:13:52;;;;;;;12.00;10.90;;;;;;;18.10;90.32;97073.98;108574;1286;22377;-85
2022/06/09 05:16:20;;;;;;;12.00;9.20;;;;;;;18.16;90.39;97082.80;108557;1286;22981;-86
2022/06/09 05:18:49;;;;;;;8.70;7.70;;;;;;;18.18;90.41;97087.02;108300;1287;22241;-86
2022/06/09 05:21:17;;;;;;;10.00;8.20;;;;;;;18.19;90.12;97090.39;108575;1286;22357;-86
2022/06/09 05:23:45;;;;;;;10.20;8.40;;;;;;;18.13;89.82;97096.00;108569;1286;22315;-87
2022/06/09 05:26:15;;;;;;;8.60;7.10;;;;;;;18.03;89.86;97096.94;108574;1286;22342;-85
2022/06/09 05:28:43;;;;;;;8.00;7.20;;;;;;;18.01;90.01;97100.87;108575;1285;22448;-85
2022/06/09 05:31:11;;;;;;;7.70;6.50;;;;;;;18.01;89.90;97103.07;108559;1286;22273;-86
2022/06/09 05:33:40;;;;;;;7.60;6.80;;;;;;;18.00;89.70;97105.08;108548;1286;22317;-88
2022/06/09 05:36:08;;;;;;;8.40;7.40;;;;;;;17.97;89.80;97106.91;108567;1285;22474;-88
2022/06/09 05:46:58;;;;;;;7.10;6.40;;;;;;;17.99;89.68;97114.17;108303;1287;22388;-87
2022/06/09 05:49:26;;;;;;;8.10;7.30;;;;;;;18.05;89.82;97120.10;108542;1287;23152;-87
2022/06/09 05:51:54;;;;;;;10.30;8.50;;;;;;;18.12;89.91;97118.26;108519;1287;22324;-87
2022/06/09 05:54:22;;;;;;;8.30;7.30;;;;;;;18.18;89.66;97122.45;108528;1285;22559;-86
2022/06/09 05:56:50;;;;;;;8.70;7.80;;;;;;;18.21;89.64;97118.70;108516;1287;22464;-88
2022/06/09 05:59:18;;;;;;;8.40;7.60;;;;;;;18.26;89.73;97118.94;108585;1285;22258;-87
2022/06/09 06:01:46;;;;;;;10.10;8.00;;;;;;;18.33;89.70;97123.92;108558;1283;22385;-86
2022/06/09 06:04:15;;;;;;;9.80;8.40;;;;;;;18.43;89.56;97126.10;108521;1286;23153;-86
2022/06/09 06:06:43;;;;;;;10.10;9.10;;;;;;;18.48;89.53;97126.64;108534;1286;22367;-85
2022/06/09 06:09:15;;;;;;;9.80;8.80;;;;;;;18.52;89.57;97126.29;108415;1286;22439;-85
2022/06/09 06:11:44;;;;;;;9.60;8.60;;;;;;;18.56;89.21;97133.98;108556;1285;22294;-84
2022/06/09 06:14:12;;;;;;;8.80;7.90;;;;;;;18.57;89.25;97137.52;108581;1285;22401;-87
2022/06/09 06:16:41;;;;;;;9.30;8.40;;;;;;;18.60;89.01;97133.96;108568;1285;22262;-86
2022/06/09 06:19:12;;;;;;;9.60;8.60;;;;;;;18.61;88.95;97134.61;108572;1285;22978;-87
2022/06/09 06:21:41;;;;;;;10.90;8.90;;;;;;;18.63;88.97;97136.97;108281;1286;22489;-87
2022/06/09 06:24:11;;;;;;;12.70;8.90;;;;;;;18.64;89.07;97133.77;108572;1285;22442;-87
2022/06/09 06:26:40;;;;;;;11.10;8.80;;;;;;;18.70;89.10;97137.20;108386;1286;22156;-87
2022/06/09 06:29:14;;;;;;;11.10;8.10;;;;;;;18.77;89.05;97131.73;108574;1285;22350;-86
2022/06/09 06:31:43;;;;;;;9.70;8.80;;;;;;;18.86;88.88;97132.28;108555;1285;22291;-86
2022/06/09 06:34:11;;;;;;;9.90;8.70;;;;;;;18.90;88.81;97134.90;108559;1286;22444;-86
2022/06/09 06:36:40;;;;;;;9.00;8.10;;;;;;;18.93;88.94;97134.25;108601;1285;22342;-86
2022/06/09 06:39:08;;;;;;;9.10;7.70;;;;;;;19.03;88.89;97130.23;108531;1287;22273;-86
2022/06/09 06:41:38;;;;;;;8.60;7.80;;;;;;;19.10;88.75;97127.48;108557;1286;22963;-87
2022/06/09 06:44:06;;;;;;;11.40;8.60;;;;;;;19.20;88.67;97130.34;108558;1286;22295;-85
2022/06/09 06:46:35;;;;;;;10.10;9.20;;;;;;;19.26;88.40;97132.73;108566;1286;22262;-86
2022/06/09 06:49:04;;;;;;;10.00;9.00;;;;;;;19.31;88.14;97133.17;108518;1286;22408;-86
2022/06/09 06:51:33;;;;;;;9.30;8.40;;;;;;;19.35;88.23;97133.92;108483;1287;23012;-85
2022/06/09 06:54:04;;;;;;;10.20;9.30;;;;;;;19.46;88.02;97130.76;108547;1287;22318;-84
2022/06/09 06:56:34;;;;;;;9.80;8.90;;;;;;;19.51;87.60;97136.81;108562;1285;22456;-85
2022/06/09 06:59:02;;;;;;;10.60;9.60;;;;;;;19.51;87.25;97136.19;108562;1285;23163;-85
2022/06/09 07:01:30;;;;;;;9.00;8.10;;;;;;;19.51;87.28;97135.41;108546;1285;22312;-86
2022/06/09 07:03:58;;;;;;;11.30;8.40;;;;;;;19.53;87.05;97136.91;108576;1285;22350;-84
2022/06/09 07:06:27;;;;;;;10.20;7.90;;;;;;;19.55;86.49;97133.48;108560;1285;23481;-83
2022/06/09 07:08:55;;;;;;;8.30;7.50;;;;;;;19.58;86.71;97132.41;108554;1285;22325;-83
2022/06/09 07:11:23;;;;;;;12.00;8.20;;;;;;;19.66;86.53;97130.97;108556;1284;22353;-83
2022/06/09 07:13:51;;;;;;;8.40;7.50;;;;;;;19.78;86.83;97131.92;108402;1286;22445;-84
2022/06/09 07:16:19;;;;;;;10.20;9.20;;;;;;;19.99;86.82;97131.55;108515;1286;22486;-83
2022/06/09 07:19:07;;;;;;;10.10;9.20;;;;;;;20.19;86.23;97132.16;108388;1287;22321;-84
2022/06/09 07:21:35;;;;;;;8.90;8.00;;;;;;;20.28;85.23;97132.54;108466;1287;22303;-84
2022/06/09 07:24:03;;;;;;;9.00;8.20;;;;;;;20.32;85.16;97135.52;108489;1286;22441;-83
2022/06/09 07:26:31;;;;;;;10.20;9.20;;;;;;;20.36;85.25;97133.44;108535;1285;22266;-84
2022/06/09 07:28:59;;;;;;;10.00;9.10;;;;;;;20.40;84.88;97132.30;108534;1284;22341;-85
2022/06/09 07:31:28;;;;;;;13.00;11.80;;;;;;;20.48;84.89;97131.48;108323;1286;22339;-84
2022/06/09 07:33:56;;;;;;;16.80;12.60;;;;;;;20.65;84.85;97132.85;108310;1286;22312;-85
2022/06/09 07:36:26;;;;;;;17.60;14.60;;;;;;;20.78;84.62;97138.86;108291;1286;22298;-84
2022/06/09 07:38:54;;;;;;;16.80;15.10;;;;;;;20.89;83.66;97140.09;108516;1285;22338;-84
2022/06/09 07:41:22;;;;;;;20.50;17.10;;;;;;;20.95;83.19;97143.70;108278;1286;22454;-84
2022/06/09 07:44:01;;;;;;;17.90;15.50;;;;;;;21.04;82.88;97144.05;108508;1286;22346;-83
2022/06/09 07:46:30;;;;;;;20.60;16.80;;;;;;;21.20;83.24;97140.89;108507;1285;22297;-84
2022/06/09 07:48:58;;;;;;;24.10;21.50;;;;;;;21.40;82.74;97136.81;108489;1285;22438;-84
2022/06/09 07:51:29;;;;;;;26.20;21.50;;;;;;;21.56;82.75;97134.66;108252;1286;22280;-85
2022/06/09 07:53:58;;;;;;;24.00;19.30;;;;;;;21.70;82.77;97134.42;108510;1286;22363;-83
2022/06/09 07:56:26;;;;;;;27.90;20.90;;;;;;;21.81;81.17;97134.59;108514;1285;22370;-87
2022/06/09 07:58:55;;;;;;;21.60;18.20;;;;;;;21.84;81.79;97136.33;108509;1285;22419;-86
2022/06/09 08:01:23;;;;;;;21.20;18.70;;;;;;;21.89;81.49;97134.36;108541;1285;22254;-85
2022/06/09 08:03:52;;;;;;;24.80;19.90;;;;;;;22.00;81.36;97136.08;108518;1285;22579;-85
2022/06/09 08:06:21;;;;;;;22.30;20.10;;;;;;;22.12;80.50;97138.51;108446;1286;22370;-85
2022/06/09 08:08:55;;;;;;;24.90;22.50;;;;;;;22.14;79.51;97137.65;108289;1286;22505;-85
2022/06/09 08:11:30;;;;;;;29.60;26.50;;;;;;;22.11;79.29;97140.55;108428;1287;22482;-86
2022/06/09 08:14:00;;;;;;;28.40;25.60;;;;;;;22.08;78.98;97137.65;108508;1286;23310;-86
2022/06/09 08:16:29;;;;;;;26.30;23.00;;;;;;;22.15;79.47;97138.98;108290;1286;23138;-85
2022/06/09 08:18:57;;;;;;;24.50;22.20;;;;;;;22.27;78.55;97140.40;108532;1286;22529;-86
2022/06/09 08:21:27;;;;;;;26.50;23.70;;;;;;;22.31;79.17;97142.67;108304;1286;22276;-83
2022/06/09 08:24:13;;;;;;;21.70;19.80;;;;;;;22.44;78.96;97140.14;108334;1285;22286;-86
2022/06/09 08:26:41;;;;;;;25.60;22.70;;;;;;;22.52;78.86;97146.31;108472;1287;22472;-84
2022/06/09 08:29:10;;;;;;;27.00;24.50;;;;;;;22.54;78.18;97144.58;108561;1285;22428;-83
2022/06/09 08:31:39;;;;;;;25.40;23.20;;;;;;;22.57;78.13;97144.98;108475;1287;22413;-85
2022/06/09 08:34:09;;;;;;;24.70;22.40;;;;;;;22.60;77.59;97147.88;108538;1285;22282;-88
2022/06/09 08:36:38;;;;;;;21.60;19.70;;;;;;;22.72;77.24;97147.14;108432;1286;22346;-89
2022/06/09 08:39:06;;;;;;;23.30;20.90;;;;;;;22.75;77.45;97146.42;108547;1285;22369;-85
2022/06/09 08:41:46;;;;;;;25.20;22.90;;;;;;;22.78;76.79;97146.02;108541;1285;22330;-86
2022/06/09 08:44:20;;;;;;;29.20;26.60;;;;;;;22.76;77.24;97145.23;108283;1286;23067;-88
2022/06/09 08:47:02;;;;;;;25.50;23.00;;;;;;;22.79;77.17;97147.17;108576;1285;22386;-86
2022/06/09 08:49:33;;;;;;;26.30;23.90;;;;;;;22.83;77.25;97148.98;108449;1286;22581;-85
2022/06/09 08:52:15;;;;;;;25.70;23.20;;;;;;;22.84;76.91;97147.63;108537;1285;22301;-86
2022/06/09 08:54:45;;;;;;;25.70;23.20;;;;;;;22.85;77.17;97144.89;108515;1285;22450;-87
2022/06/09 08:57:22;;;;;;;22.90;20.80;;;;;;;22.90;76.38;97141.02;108558;1286;22301;-86
2022/06/09 08:59:56;;;;;;;21.20;19.20;;;;;;;23.02;76.35;97144.45;108294;1285;22454;-86
2022/06/09 09:02:39;;;;;;;20.70;18.70;;;;;;;23.34;76.64;97142.49;108286;1286;23039;-86
2022/06/09 09:05:19;;;;;;;23.90;21.80;;;;;;;23.60;76.02;97141.31;108543;1285;22280;-86
2022/06/09 09:07:59;;;;;;;23.70;21.50;;;;;;;23.85;75.66;97141.02;108408;1284;22350;-87
2022/06/09 09:10:49;;;;;;;23.30;21.30;;;;;;;23.90;74.86;97139.86;108275;1286;23160;-85
2022/06/09 09:13:44;;;;;;;23.30;21.20;;;;;;;23.87;74.81;97144.45;108526;1285;22450;-85
2022/06/09 09:16:20;;;;;;;23.30;21.40;;;;;;;23.88;74.71;97142.08;108542;1284;22324;-86
2022/06/09 09:19:12;;;;;;;21.60;19.90;;;;;;;23.85;74.54;97142.90;108536;1285;22484;-87
2022/06/09 09:22:25;;;;;;;21.20;19.20;;;;;;;24.02;74.98;97143.46;108531;1286;22426;-88
2022/06/09 09:25:49;;;;;;;21.30;19.30;;;;;;;24.50;74.96;97138.95;108512;1285;22382;-87
2022/06/09 09:28:20;;;;;;;21.50;19.30;;;;;;;24.91;73.07;97145.59;107639;1293;22393;-87
2022/06/09 09:31:05;;;;;;;21.10;19.30;;;;;;;25.00;72.92;97147.85;107688;1291;22557;-88
2022/06/09 09:33:33;;;;;;;22.60;18.90;;;;;;;24.99;73.08;97146.83;107770;1291;23389;-88
2022/06/09 09:36:17;;;;;;;19.90;18.20;;;;;;;24.96;72.61;97150.40;107663;1292;22410;-87
2022/06/09 09:38:50;;;;;;;20.50;18.60;;;;;;;25.00;73.31;97153.36;107800;1292;22508;-86
2022/06/09 09:41:33;;;;;;;18.30;16.60;;;;;;;25.07;72.53;97149.33;107709;1291;23155;-86
2022/06/09 09:44:22;;;;;;;18.70;16.90;;;;;;;25.16;72.19;97153.20;107849;1291;22451;-88
2022/06/09 09:47:00;;;;;;;18.80;16.20;;;;;;;25.24;72.38;97155.90;107798;1291;22271;-88
2022/06/09 09:49:33;;;;;;;18.40;16.50;;;;;;;25.39;72.37;97153.27;107588;1292;22535;-88
2022/06/09 09:52:39;;;;;;;18.90;16.30;;;;;;;25.44;70.88;97153.52;107596;1292;23045;-89
2022/06/09 09:55:32;;;;;;;15.60;14.20;;;;;;;25.48;71.66;97153.21;107808;1291;22646;-86
2022/06/09 09:58:23;;;;;;;16.40;14.80;;;;;;;25.69;70.89;97154.02;107780;1291;22413;-88
2022/06/09 10:01:02;;;;;;;17.80;16.20;;;;;;;25.93;71.19;97149.50;107812;1291;23124;-86
2022/06/09 10:09:44;;;;;;;19.70;17.90;;;;;;;26.16;69.24;97146.13;108344;1286;23204;-87
2022/06/09 10:12:16;;;;;;;20.80;18.90;;;;;;;26.09;68.73;97148.77;108554;1285;22332;-87
2022/06/09 10:14:54;;;;;;;22.50;18.00;;;;;;;26.03;69.05;97151.63;108530;1286;22288;-89
2022/06/09 10:17:32;;;;;;;21.20;19.10;;;;;;;26.23;68.41;97155.55;108438;1286;23202;-89
2022/06/09 10:20:28;;;;;;;21.60;19.30;;;;;;;26.41;67.15;97152.55;108107;1285;295262;-85
2022/06/09 10:23:02;;;;;;;20.50;18.60;;;;;;;26.36;66.66;97150.91;108448;1287;22397;-84
2022/06/09 10:25:48;;;;;;;19.40;17.60;;;;;;;26.42;67.27;97149.79;108545;1285;22315;-84
2022/06/09 10:28:30;;;;;;;20.60;18.80;;;;;;;26.54;67.37;97143.52;108555;1286;22333;-85
2022/06/09 10:31:05;;;;;;;20.50;17.50;;;;;;;26.53;66.97;97140.36;108336;1285;23036;-85
2022/06/09 10:33:58;;;;;;;17.70;16.10;;;;;;;26.54;67.21;97138.63;108575;1285;22316;-84
2022/06/09 10:37:25;;;;;;;20.70;18.80;;;;;;;26.64;67.17;97138.51;108577;1285;22492;-87
2022/06/09 10:40:00;;;;;;;19.10;17.40;;;;;;;26.51;66.06;97138.59;107545;1293;22498;-83
2022/06/09 10:42:50;;;;;;;16.20;14.80;;;;;;;26.35;66.23;97142.34;107649;1293;23170;-86
2022/06/09 10:45:52;;;;;;;16.80;15.10;;;;;;;26.27;65.43;97142.46;107350;1294;22442;-85
2022/06/09 10:57:40;;;;;;;16.80;14.80;;;;;;;25.99;65.51;97139.95;107505;1293;22389;-80
2022/06/09 11:00:15;;;;;;;17.60;14.00;;;;;;;25.95;65.10;97135.66;107590;1293;22458;-80
2022/06/09 11:02:54;;;;;;;15.70;14.30;;;;;;;25.99;65.22;97130.48;107458;1293;22327;-80
2022/06/09 11:06:34;;;;;;;16.90;15.10;;;;;;;26.33;63.47;97125.72;107598;1293;23394;-80
2022/06/09 11:10:33;;;;;;;14.40;13.00;;;;;;;26.51;63.48;97125.16;106390;1308;22439;-81
2022/06/09 11:14:43;;;;;;;16.60;15.10;;;;;;;27.14;63.85;97116.74;106443;1305;22344;-81
2022/06/09 11:18:31;;;;;;;16.60;14.90;;;;;;;27.73;62.45;97115.19;105850;1314;22452;-81
2022/06/09 11:22:04;;;;;;;16.40;14.70;;;;;;;27.96;61.13;97115.15;105839;1314;23042;-81
2022/06/09 11:25:56;;;;;;;16.40;14.90;;;;;;;27.73;61.47;97119.93;105048;1321;22226;-82
2022/06/09 11:29:27;;;;;;;16.10;14.50;;;;;;;27.43;61.36;97121.75;104169;1333;22328;-84
2022/06/09 11:32:09;;;;;;;13.90;12.60;;;;;;;27.35;61.14;97122.16;104174;1333;23112;-88
2022/06/09 11:35:12;;;;;;;17.60;16.00;;;;;;;27.11;60.92;97125.88;104173;1332;22282;-82
2022/06/09 11:37:41;;;;;;;17.40;15.60;;;;;;;26.87;59.89;97124.40;104184;1332;22299;-86
2022/06/09 11:40:33;;;;;;;15.80;14.20;;;;;;;26.54;60.41;97117.46;104170;1331;22445;-85
2022/06/09 11:43:20;;;;;;;16.50;13.70;;;;;;;26.42;61.33;97115.75;104182;1331;22337;-88
2022/06/09 11:45:55;;;;;;;16.20;14.60;;;;;;;26.37;61.04;97119.10;104594;1320;22363;-87
2022/06/09 11:48:53;;;;;;;;;;;;;;;26.22;60.10;97110.83;105475;1317;23376;-86
2022/06/09 11:51:50;;;;;;;13.80;10.70;;;;;;;25.98;59.82;97108.40;105665;1314;22408;-86
2022/06/09 11:54:37;;;;;;;13.20;10.60;;;;;;;25.80;58.64;97104.36;106382;1308;23158;-86
2022/06/09 11:57:24;;;;;;;12.10;10.90;;;;;;;25.65;59.35;97096.23;106500;1308;22802;-86
2022/06/09 12:00:00;;;;;;;13.70;11.90;;;;;;;25.69;59.77;97092.86;106417;1307;22444;-86
2022/06/09 12:02:57;;;;;;;16.20;14.60;;;;;;;25.78;59.09;97094.92;107002;1300;22360;-85
2022/06/09 12:05:28;;;;;;;;;;;;;;;25.99;58.43;97093.17;107645;1287;22607;-86
2022/06/09 12:08:31;;;;;;;17.60;15.90;;;;;;;26.22;58.88;97085.12;108442;1286;22314;-86
2022/06/09 12:11:16;;;;;;;18.30;16.50;;;;;;;26.41;58.03;97084.94;107963;1289;23048;-87
2022/06/09 12:13:44;;;;;;;16.50;15.00;;;;;;;26.34;58.55;97081.80;107900;1290;23109;-86
2022/06/09 12:16:33;;;;;;;16.30;14.80;;;;;;;26.35;57.80;97079.35;108030;1289;23141;-84
2022/06/09 12:19:13;;;;;;;17.10;14.10;;;;;;;26.31;58.61;97072.41;108036;1289;22473;-84